createdAt,value
2017-03-12T00:00:36.275Z,1011.92
2017-03-12T00:01:18.434Z,1011.91
2017-03-12T00:02:00.634Z,1011.92
2017-03-12T00:03:55.866Z,1011.91
2017-03-12T00:04:38.090Z,1011.89
2017-03-12T00:05:20.542Z,1011.88
2017-03-12T00:07:21.202Z,1011.84
2017-03-12T00:08:03.587Z,1011.85
2017-03-12T00:08:45.706Z,1011.83
2017-03-12T00:09:28.518Z,1011.81
2017-03-12T00:10:10.961Z,1011.81
2017-03-12T00:12:27.231Z,1011.78
2017-03-12T00:13:09.638Z,1011.82
2017-03-12T00:13:52.617Z,1011.78
2017-03-12T00:15:53.445Z,1011.82
2017-03-12T00:16:36.001Z,1011.84
2017-03-12T00:17:18.651Z,1011.81
2017-03-12T00:18:00.771Z,1011.76
2017-03-12T00:18:43.567Z,1011.76
2017-03-12T00:19:26.074Z,1011.79
2017-03-12T00:20:08.884Z,1011.76
2017-03-12T00:20:51.287Z,1011.8
2017-03-12T00:21:34.116Z,1011.74
2017-03-12T00:22:16.466Z,1011.76
2017-03-12T00:22:59.197Z,1011.78
2017-03-12T00:23:41.945Z,1011.72
2017-03-12T00:24:23.961Z,1011.75
2017-03-12T00:25:06.562Z,1011.73
2017-03-12T00:25:49.532Z,1011.73
2017-03-12T00:26:32.026Z,1011.74
2017-03-12T00:27:14.485Z,1011.72
2017-03-12T00:29:46.557Z,1011.71
2017-03-12T00:31:42.005Z,1011.77
2017-03-12T00:32:24.133Z,1011.75
2017-03-12T00:33:07.494Z,1011.76
2017-03-12T00:33:50.186Z,1011.75
2017-03-12T00:34:32.881Z,1011.73
2017-03-12T00:35:15.645Z,1011.76
2017-03-12T00:35:58.115Z,1011.75
2017-03-12T00:36:40.696Z,1011.74
2017-03-12T00:37:23.394Z,1011.69
2017-03-12T00:38:05.855Z,1011.72
2017-03-12T00:38:48.286Z,1011.71
2017-03-12T00:40:43.663Z,1011.67
2017-03-12T00:41:26.330Z,1011.68
2017-03-12T00:42:09.038Z,1011.69
2017-03-12T00:42:51.699Z,1011.64
2017-03-12T00:45:07.548Z,1011.65
2017-03-12T00:45:50.123Z,1011.63
2017-03-12T00:47:44.940Z,1011.6
2017-03-12T00:48:27.029Z,1011.61
2017-03-12T00:49:09.276Z,1011.61
2017-03-12T00:49:51.985Z,1011.56
2017-03-12T00:50:34.597Z,1011.59
2017-03-12T00:51:17.060Z,1011.64
2017-03-12T00:51:59.619Z,1011.58
2017-03-12T00:52:41.536Z,1011.6
2017-03-12T00:53:23.882Z,1011.57
2017-03-12T00:54:05.798Z,1011.56
2017-03-12T00:54:48.185Z,1011.59
2017-03-12T00:55:30.638Z,1011.55
2017-03-12T00:56:12.683Z,1011.56
2017-03-12T00:56:55.574Z,1011.52
2017-03-12T00:57:37.815Z,1011.56
2017-03-12T00:58:20.494Z,1011.54
2017-03-12T00:59:02.698Z,1011.53
2017-03-12T00:59:45.685Z,1011.56
2017-03-12T01:00:28.102Z,1011.53
2017-03-12T01:01:10.627Z,1011.51
2017-03-12T01:01:52.369Z,1011.52
2017-03-12T01:02:35.023Z,1011.49
2017-03-12T01:03:17.629Z,1011.49
2017-03-12T01:03:59.933Z,1011.49
2017-03-12T01:04:42.697Z,1011.51
2017-03-12T01:05:25.513Z,1011.47
2017-03-12T01:06:08.257Z,1011.46
2017-03-12T01:06:50.471Z,1011.48
2017-03-12T01:09:22.974Z,1011.43
2017-03-12T01:10:05.785Z,1011.44
2017-03-12T01:10:48.315Z,1011.43
2017-03-12T01:11:30.855Z,1011.43
2017-03-12T01:12:13.685Z,1011.4
2017-03-12T01:12:56.383Z,1011.38
2017-03-12T01:13:39.554Z,1011.41
2017-03-12T01:14:21.556Z,1011.4
2017-03-12T01:15:04.024Z,1011.41
2017-03-12T01:15:46.160Z,1011.37
2017-03-12T01:17:41.306Z,1011.36
2017-03-12T01:18:23.731Z,1011.36
2017-03-12T01:20:18.988Z,1011.34
2017-03-12T01:21:01.527Z,1011.34
2017-03-12T01:21:43.871Z,1011.33
2017-03-12T01:23:38.909Z,1011.29
2017-03-12T01:24:21.704Z,1011.23
2017-03-12T01:25:04.320Z,1011.23
2017-03-12T01:27:20.796Z,1011.18
2017-03-12T01:28:03.257Z,1011.16
2017-03-12T01:28:45.806Z,1011.18
2017-03-12T01:29:28.485Z,1011.16
2017-03-12T01:30:11.360Z,1011.17
2017-03-12T01:30:53.577Z,1011.15
2017-03-12T01:31:36.140Z,1011.14
2017-03-12T01:32:18.984Z,1011.12
2017-03-12T01:33:01.232Z,1011.13
2017-03-12T01:33:44.020Z,1011.15
2017-03-12T01:34:25.633Z,1011.14
2017-03-12T01:35:07.882Z,1011.14
2017-03-12T01:37:03.156Z,1011.13
2017-03-12T01:37:45.713Z,1011.1
2017-03-12T01:38:27.745Z,1011.08
2017-03-12T01:39:10.195Z,1011.07
2017-03-12T01:41:42.049Z,1011.08
2017-03-12T01:42:24.383Z,1011.12
2017-03-12T01:43:06.425Z,1011.14
2017-03-12T01:43:48.244Z,1011.15
2017-03-12T01:44:30.979Z,1011.16
2017-03-12T01:46:26.411Z,1011.14
2017-03-12T01:47:08.832Z,1011.14
2017-03-12T01:49:09.665Z,1011.16
2017-03-12T01:49:52.157Z,1011.12
2017-03-12T01:50:34.552Z,1011.17
2017-03-12T01:51:17.051Z,1011.11
2017-03-12T01:53:49.526Z,1011.09
2017-03-12T01:54:32.203Z,1011.09
2017-03-12T01:55:14.531Z,1011.07
2017-03-12T01:55:57.203Z,1011.09
2017-03-12T01:56:39.874Z,1011.11
2017-03-12T01:57:22.554Z,1011.12
2017-03-12T01:58:04.965Z,1011.13
2017-03-12T02:00:04.447Z,1011.08
2017-03-12T02:00:44.979Z,1011.04
2017-03-12T02:01:25.516Z,1011.08
2017-03-12T02:02:06.050Z,1011.05
2017-03-12T02:02:46.580Z,1011.04
2017-03-12T02:03:27.112Z,1011.06
2017-03-12T02:04:07.638Z,1011.06
2017-03-12T02:04:48.162Z,1010.98
2017-03-12T02:05:28.688Z,1011.02
2017-03-12T02:06:09.218Z,1011.03
2017-03-12T02:06:49.752Z,1011.03
2017-03-12T02:07:30.295Z,1011.04
2017-03-12T02:08:10.813Z,1011.01
2017-03-12T02:08:51.357Z,1011.01
2017-03-12T02:09:31.891Z,1011.01
2017-03-12T02:10:12.428Z,1010.97
2017-03-12T02:10:52.951Z,1010.97
2017-03-12T02:11:33.492Z,1010.98
2017-03-12T02:12:14.025Z,1010.97
2017-03-12T02:12:54.555Z,1010.96
2017-03-12T02:13:35.085Z,1010.98
2017-03-12T02:14:15.618Z,1010.95
2017-03-12T02:14:56.151Z,1010.93
2017-03-12T02:15:36.688Z,1010.97
2017-03-12T02:16:17.218Z,1010.96
2017-03-12T02:16:57.760Z,1010.91
2017-03-12T02:17:38.291Z,1010.92
2017-03-12T02:18:18.827Z,1010.92
2017-03-12T02:18:59.363Z,1010.89
2017-03-12T02:19:39.896Z,1010.91
2017-03-12T02:20:20.422Z,1010.87
2017-03-12T02:21:00.960Z,1010.85
2017-03-12T02:21:41.490Z,1010.86
2017-03-12T02:22:22.022Z,1010.86
2017-03-12T02:23:02.550Z,1010.84
2017-03-12T02:23:43.084Z,1010.84
2017-03-12T02:24:23.615Z,1010.82
2017-03-12T02:25:04.138Z,1010.82
2017-03-12T02:25:44.672Z,1010.82
2017-03-12T02:26:25.215Z,1010.82
2017-03-12T02:27:05.745Z,1010.78
2017-03-12T02:27:46.264Z,1010.76
2017-03-12T02:28:26.795Z,1010.77
2017-03-12T02:29:07.326Z,1010.76
2017-03-12T02:29:47.857Z,1010.75
2017-03-12T02:30:28.391Z,1010.73
2017-03-12T02:31:08.922Z,1010.73
2017-03-12T02:31:49.455Z,1010.71
2017-03-12T02:32:29.986Z,1010.67
2017-03-12T02:33:10.521Z,1010.73
2017-03-12T02:33:51.051Z,1010.71
2017-03-12T02:34:31.580Z,1010.66
2017-03-12T02:35:12.120Z,1010.67
2017-03-12T02:35:52.643Z,1010.72
2017-03-12T02:36:33.175Z,1010.69
2017-03-12T02:37:13.708Z,1010.65
2017-03-12T02:37:54.259Z,1010.66
2017-03-12T02:38:34.764Z,1010.68
2017-03-12T02:39:15.295Z,1010.64
2017-03-12T02:39:55.827Z,1010.64
2017-03-12T02:40:36.360Z,1010.62
2017-03-12T02:41:16.884Z,1010.66
2017-03-12T02:41:57.417Z,1010.66
2017-03-12T02:42:37.953Z,1010.63
2017-03-12T02:43:18.486Z,1010.63
2017-03-12T02:43:59.020Z,1010.62
2017-03-12T02:44:39.579Z,1010.64
2017-03-12T02:45:20.114Z,1010.65
2017-03-12T02:46:00.629Z,1010.64
2017-03-12T02:46:41.159Z,1010.66
2017-03-12T02:47:21.698Z,1010.69
2017-03-12T02:48:02.230Z,1010.66
2017-03-12T02:48:42.761Z,1010.65
2017-03-12T02:49:23.288Z,1010.69
2017-03-12T02:50:03.819Z,1010.67
2017-03-12T02:50:44.355Z,1010.63
2017-03-12T02:51:24.888Z,1010.66
2017-03-12T02:52:05.426Z,1010.64
2017-03-12T02:52:45.963Z,1010.63
2017-03-12T02:53:26.492Z,1010.62
2017-03-12T02:54:07.015Z,1010.64
2017-03-12T02:54:47.554Z,1010.64
2017-03-12T02:55:28.089Z,1010.68
2017-03-12T02:56:08.630Z,1010.63
2017-03-12T02:56:49.152Z,1010.61
2017-03-12T02:57:29.674Z,1010.62
2017-03-12T02:58:10.206Z,1010.7
2017-03-12T02:58:50.739Z,1010.65
2017-03-12T02:59:31.274Z,1010.62
2017-03-12T03:00:11.797Z,1010.63
2017-03-12T03:00:52.334Z,1010.69
2017-03-12T03:01:32.865Z,1010.63
2017-03-12T03:02:13.397Z,1010.59
2017-03-12T03:02:53.935Z,1010.63
2017-03-12T03:03:34.475Z,1010.6
2017-03-12T03:04:15.008Z,1010.58
2017-03-12T03:04:55.541Z,1010.58
2017-03-12T03:05:36.083Z,1010.6
2017-03-12T03:06:16.608Z,1010.59
2017-03-12T03:06:57.140Z,1010.64
2017-03-12T03:07:37.679Z,1010.6
2017-03-12T03:08:18.211Z,1010.61
2017-03-12T03:08:58.736Z,1010.57
2017-03-12T03:09:39.271Z,1010.57
2017-03-12T03:10:19.818Z,1010.58
2017-03-12T03:11:00.356Z,1010.58
2017-03-12T03:11:40.889Z,1010.58
2017-03-12T03:12:21.432Z,1010.58
2017-03-12T03:13:01.958Z,1010.56
2017-03-12T03:13:42.488Z,1010.58
2017-03-12T03:14:23.018Z,1010.59
2017-03-12T03:15:03.548Z,1010.63
2017-03-12T03:15:44.084Z,1010.6
2017-03-12T03:16:24.611Z,1010.56
2017-03-12T03:17:05.151Z,1010.59
2017-03-12T03:17:45.678Z,1010.56
2017-03-12T03:18:26.210Z,1010.57
2017-03-12T03:19:06.744Z,1010.58
2017-03-12T03:19:47.281Z,1010.6
2017-03-12T03:20:27.811Z,1010.53
2017-03-12T03:21:08.345Z,1010.51
2017-03-12T03:21:48.876Z,1010.55
2017-03-12T03:22:29.402Z,1010.53
2017-03-12T03:23:09.939Z,1010.51
2017-03-12T03:23:50.474Z,1010.49
2017-03-12T03:24:31.006Z,1010.53
2017-03-12T03:25:11.545Z,1010.49
2017-03-12T03:25:52.071Z,1010.49
2017-03-12T03:26:32.606Z,1010.49
2017-03-12T03:27:13.142Z,1010.53
2017-03-12T03:27:53.667Z,1010.54
2017-03-12T03:28:34.194Z,1010.51
2017-03-12T03:29:14.728Z,1010.49
2017-03-12T03:29:55.262Z,1010.47
2017-03-12T03:30:35.786Z,1010.5
2017-03-12T03:31:16.316Z,1010.51
2017-03-12T03:31:56.852Z,1010.52
2017-03-12T03:32:37.407Z,1010.48
2017-03-12T03:33:17.937Z,1010.5
2017-03-12T03:33:58.476Z,1010.47
2017-03-12T03:34:39.011Z,1010.52
2017-03-12T03:35:19.546Z,1010.47
2017-03-12T03:36:00.070Z,1010.44
2017-03-12T03:36:40.601Z,1010.48
2017-03-12T03:37:21.130Z,1010.51
2017-03-12T03:38:01.688Z,1010.52
2017-03-12T03:38:42.208Z,1010.49
2017-03-12T03:39:22.749Z,1010.52
2017-03-12T03:40:03.269Z,1010.49
2017-03-12T03:40:43.797Z,1010.5
2017-03-12T03:41:24.338Z,1010.52
2017-03-12T03:42:04.865Z,1010.47
2017-03-12T03:42:45.393Z,1010.5
2017-03-12T03:43:25.925Z,1010.49
2017-03-12T03:44:06.454Z,1010.52
2017-03-12T03:44:46.992Z,1010.53
2017-03-12T03:45:27.525Z,1010.52
2017-03-12T03:46:08.062Z,1010.52
2017-03-12T03:46:48.604Z,1010.56
2017-03-12T03:47:29.128Z,1010.51
2017-03-12T03:48:09.663Z,1010.53
2017-03-12T03:48:50.186Z,1010.53
2017-03-12T03:49:30.725Z,1010.54
2017-03-12T03:50:11.258Z,1010.55
2017-03-12T03:50:51.779Z,1010.51
2017-03-12T03:51:32.303Z,1010.52
2017-03-12T03:52:12.832Z,1010.51
2017-03-12T03:52:53.365Z,1010.55
2017-03-12T03:53:33.894Z,1010.5
2017-03-12T03:54:14.419Z,1010.49
2017-03-12T03:54:54.939Z,1010.51
2017-03-12T03:55:35.483Z,1010.55
2017-03-12T03:56:16.014Z,1010.52
2017-03-12T03:56:56.543Z,1010.55
2017-03-12T03:57:37.074Z,1010.53
2017-03-12T03:58:17.604Z,1010.54
2017-03-12T03:58:58.131Z,1010.53
2017-03-12T03:59:38.671Z,1010.53
2017-03-12T04:00:19.197Z,1010.52
2017-03-12T04:00:59.723Z,1010.56
2017-03-12T04:01:40.256Z,1010.53
2017-03-12T04:02:20.788Z,1010.51
2017-03-12T04:03:01.316Z,1010.54
2017-03-12T04:03:41.840Z,1010.54
2017-03-12T04:04:22.366Z,1010.51
2017-03-12T04:05:02.907Z,1010.5
2017-03-12T04:05:43.444Z,1010.5
2017-03-12T04:06:23.983Z,1010.52
2017-03-12T04:07:04.517Z,1010.51
2017-03-12T04:07:45.040Z,1010.49
2017-03-12T04:08:25.571Z,1010.47
2017-03-12T04:09:06.100Z,1010.47
2017-03-12T04:09:46.636Z,1010.49
2017-03-12T04:10:27.165Z,1010.48
2017-03-12T04:11:07.693Z,1010.48
2017-03-12T04:11:48.214Z,1010.51
2017-03-12T04:12:28.742Z,1010.53
2017-03-12T04:13:09.274Z,1010.48
2017-03-12T04:13:49.799Z,1010.53
2017-03-12T04:14:30.334Z,1010.54
2017-03-12T04:15:10.936Z,1010.53
2017-03-12T04:15:51.472Z,1010.53
2017-03-12T04:16:32.001Z,1010.49
2017-03-12T04:17:12.540Z,1010.5
2017-03-12T04:17:53.077Z,1010.5
2017-03-12T04:18:33.613Z,1010.51
2017-03-12T04:19:14.145Z,1010.47
2017-03-12T04:19:54.676Z,1010.51
2017-03-12T04:20:35.204Z,1010.49
2017-03-12T04:21:15.741Z,1010.52
2017-03-12T04:21:56.270Z,1010.51
2017-03-12T04:22:36.803Z,1010.49
2017-03-12T04:23:17.338Z,1010.51
2017-03-12T04:23:57.877Z,1010.5
2017-03-12T04:24:38.401Z,1010.5
2017-03-12T04:25:18.933Z,1010.45
2017-03-12T04:25:59.461Z,1010.48
2017-03-12T04:26:40.003Z,1010.51
2017-03-12T04:27:20.539Z,1010.48
2017-03-12T04:28:01.073Z,1010.54
2017-03-12T04:28:41.601Z,1010.49
2017-03-12T04:29:22.133Z,1010.53
2017-03-12T04:30:02.667Z,1010.55
2017-03-12T04:30:43.208Z,1010.53
2017-03-12T04:31:23.742Z,1010.53
2017-03-12T04:32:04.279Z,1010.49
2017-03-12T04:32:44.809Z,1010.52
2017-03-12T04:33:25.339Z,1010.48
2017-03-12T04:34:05.871Z,1010.46
2017-03-12T04:34:46.403Z,1010.5
2017-03-12T04:35:26.937Z,1010.49
2017-03-12T04:36:07.470Z,1010.49
2017-03-12T04:36:48.035Z,1010.49
2017-03-12T04:37:28.560Z,1010.46
2017-03-12T04:38:09.107Z,1010.48
2017-03-12T04:38:49.618Z,1010.52
2017-03-12T04:39:30.155Z,1010.5
2017-03-12T04:40:10.689Z,1010.5
2017-03-12T04:40:51.222Z,1010.43
2017-03-12T04:41:31.748Z,1010.49
2017-03-12T04:42:12.282Z,1010.53
2017-03-12T04:42:52.814Z,1010.57
2017-03-12T04:43:33.351Z,1010.54
2017-03-12T04:44:13.869Z,1010.58
2017-03-12T04:44:54.401Z,1010.52
2017-03-12T04:45:34.934Z,1010.56
2017-03-12T04:46:15.466Z,1010.55
2017-03-12T04:46:56.001Z,1010.55
2017-03-12T04:47:36.539Z,1010.5
2017-03-12T04:48:17.069Z,1010.5
2017-03-12T04:48:57.607Z,1010.49
2017-03-12T04:49:38.138Z,1010.51
2017-03-12T04:50:18.676Z,1010.52
2017-03-12T04:50:59.210Z,1010.5
2017-03-12T04:51:39.747Z,1010.51
2017-03-12T04:52:20.270Z,1010.48
2017-03-12T04:53:00.790Z,1010.49
2017-03-12T04:53:41.328Z,1010.51
2017-03-12T04:54:21.865Z,1010.51
2017-03-12T04:55:02.399Z,1010.46
2017-03-12T04:55:42.919Z,1010.48
2017-03-12T04:56:23.455Z,1010.48
2017-03-12T04:57:03.979Z,1010.46
2017-03-12T04:57:44.513Z,1010.48
2017-03-12T04:58:25.066Z,1010.5
2017-03-12T04:59:05.573Z,1010.52
2017-03-12T04:59:46.104Z,1010.49
2017-03-12T05:00:26.632Z,1010.51
2017-03-12T05:01:07.168Z,1010.51
2017-03-12T05:01:47.703Z,1010.51
2017-03-12T05:02:28.225Z,1010.48
2017-03-12T05:03:08.748Z,1010.49
2017-03-12T05:03:49.289Z,1010.49
2017-03-12T05:04:29.822Z,1010.51
2017-03-12T05:05:10.355Z,1010.48
2017-03-12T05:05:50.877Z,1010.48
2017-03-12T05:06:31.408Z,1010.45
2017-03-12T05:07:11.942Z,1010.48
2017-03-12T05:07:52.467Z,1010.46
2017-03-12T05:08:32.994Z,1010.47
2017-03-12T05:09:13.523Z,1010.5
2017-03-12T05:09:54.058Z,1010.43
2017-03-12T05:10:34.592Z,1010.43
2017-03-12T05:11:15.126Z,1010.42
2017-03-12T05:11:55.660Z,1010.42
2017-03-12T05:12:36.184Z,1010.41
2017-03-12T05:13:16.712Z,1010.44
2017-03-12T05:13:57.247Z,1010.42
2017-03-12T05:14:37.781Z,1010.42
2017-03-12T05:15:18.318Z,1010.42
2017-03-12T05:15:58.841Z,1010.42
2017-03-12T05:16:39.366Z,1010.4
2017-03-12T05:17:19.919Z,1010.41
2017-03-12T05:18:00.443Z,1010.38
2017-03-12T05:18:41.073Z,1010.4
2017-03-12T05:19:21.554Z,1010.38
2017-03-12T05:20:02.094Z,1010.4
2017-03-12T05:20:42.622Z,1010.38
2017-03-12T05:21:23.151Z,1010.36
2017-03-12T05:22:03.677Z,1010.35
2017-03-12T05:22:44.206Z,1010.35
2017-03-12T05:23:24.741Z,1010.36
2017-03-12T05:24:05.277Z,1010.34
2017-03-12T05:24:45.792Z,1010.36
2017-03-12T05:25:26.321Z,1010.34
2017-03-12T05:26:06.856Z,1010.33
2017-03-12T05:26:47.387Z,1010.34
2017-03-12T05:27:27.921Z,1010.32
2017-03-12T05:28:08.443Z,1010.33
2017-03-12T05:28:48.973Z,1010.31
2017-03-12T05:29:29.499Z,1010.3
2017-03-12T05:30:10.035Z,1010.3
2017-03-12T05:30:50.571Z,1010.32
2017-03-12T05:31:31.095Z,1010.34
2017-03-12T05:32:11.625Z,1010.33
2017-03-12T05:32:52.165Z,1010.32
2017-03-12T05:33:32.706Z,1010.32
2017-03-12T05:34:13.238Z,1010.32
2017-03-12T05:34:53.763Z,1010.32
2017-03-12T05:35:34.296Z,1010.37
2017-03-12T05:36:14.830Z,1010.33
2017-03-12T05:36:55.368Z,1010.3
2017-03-12T05:37:35.905Z,1010.34
2017-03-12T05:38:16.443Z,1010.31
2017-03-12T05:38:56.976Z,1010.36
2017-03-12T05:39:37.507Z,1010.33
2017-03-12T05:40:18.038Z,1010.36
2017-03-12T05:40:58.569Z,1010.31
2017-03-12T05:41:39.110Z,1010.31
2017-03-12T05:42:19.648Z,1010.32
2017-03-12T05:43:00.182Z,1010.31
2017-03-12T05:43:40.704Z,1010.33
2017-03-12T05:44:21.242Z,1010.37
2017-03-12T05:45:01.830Z,1010.36
2017-03-12T05:45:42.367Z,1010.32
2017-03-12T05:46:22.901Z,1010.31
2017-03-12T05:47:03.436Z,1010.32
2017-03-12T05:47:43.971Z,1010.33
2017-03-12T05:48:24.500Z,1010.36
2017-03-12T05:49:05.035Z,1010.32
2017-03-12T05:49:45.570Z,1010.41
2017-03-12T05:50:26.106Z,1010.31
2017-03-12T05:51:06.627Z,1010.35
2017-03-12T05:51:47.167Z,1010.33
2017-03-12T05:52:27.701Z,1010.33
2017-03-12T05:53:08.221Z,1010.36
2017-03-12T05:53:48.744Z,1010.32
2017-03-12T05:54:29.287Z,1010.34
2017-03-12T05:55:09.818Z,1010.27
2017-03-12T05:55:50.354Z,1010.31
2017-03-12T05:56:30.879Z,1010.29
2017-03-12T05:57:11.412Z,1010.29
2017-03-12T05:57:51.969Z,1010.26
2017-03-12T05:58:32.504Z,1010.29
2017-03-12T05:59:13.030Z,1010.25
2017-03-12T05:59:53.553Z,1010.27
2017-03-12T06:00:34.088Z,1010.26
2017-03-12T06:01:14.618Z,1010.24
2017-03-12T06:01:55.144Z,1010.26
2017-03-12T06:02:35.675Z,1010.26
2017-03-12T06:03:16.211Z,1010.22
2017-03-12T06:03:56.744Z,1010.23
2017-03-12T06:04:37.277Z,1010.26
2017-03-12T06:05:17.811Z,1010.25
2017-03-12T06:05:58.342Z,1010.23
2017-03-12T06:06:38.877Z,1010.25
2017-03-12T06:07:19.413Z,1010.23
2017-03-12T06:07:59.947Z,1010.24
2017-03-12T06:08:40.474Z,1010.19
2017-03-12T06:09:21.016Z,1010.22
2017-03-12T06:10:01.549Z,1010.24
2017-03-12T06:10:42.078Z,1010.24
2017-03-12T06:11:22.620Z,1010.32
2017-03-12T06:12:03.159Z,1010.25
2017-03-12T06:12:43.704Z,1010.28
2017-03-12T06:13:24.233Z,1010.26
2017-03-12T06:14:04.765Z,1010.25
2017-03-12T06:14:45.293Z,1010.24
2017-03-12T06:15:26.074Z,1010.22
2017-03-12T06:16:08.524Z,1010.24
2017-03-12T06:16:51.472Z,1010.28
2017-03-12T06:17:34.554Z,1010.24
2017-03-12T06:18:18.353Z,1010.24
2017-03-12T06:19:01.692Z,1010.23
2017-03-12T06:19:44.608Z,1010.24
2017-03-12T06:20:27.966Z,1010.28
2017-03-12T06:21:12.015Z,1010.25
2017-03-12T06:21:55.202Z,1010.25
2017-03-12T06:22:37.899Z,1010.29
2017-03-12T06:23:18.985Z,1010.28
2017-03-12T06:23:59.515Z,1010.26
2017-03-12T06:24:40.055Z,1010.28
2017-03-12T06:25:20.583Z,1010.28
2017-03-12T06:26:01.116Z,1010.32
2017-03-12T06:26:41.650Z,1010.29
2017-03-12T06:27:22.177Z,1010.26
2017-03-12T06:28:02.794Z,1010.24
2017-03-12T06:28:43.403Z,1010.23
2017-03-12T06:29:23.932Z,1010.26
2017-03-12T06:30:04.487Z,1010.25
2017-03-12T06:30:45.023Z,1010.26
2017-03-12T06:31:25.529Z,1010.27
2017-03-12T06:32:06.072Z,1010.22
2017-03-12T06:32:46.592Z,1010.21
2017-03-12T06:33:27.277Z,1010.22
2017-03-12T06:34:07.812Z,1010.19
2017-03-12T06:34:48.347Z,1010.22
2017-03-12T06:35:28.878Z,1010.24
2017-03-12T06:36:09.418Z,1010.23
2017-03-12T06:36:49.954Z,1010.22
2017-03-12T06:37:30.482Z,1010.18
2017-03-12T06:38:11.016Z,1010.22
2017-03-12T06:38:51.772Z,1010.17
2017-03-12T06:39:32.306Z,1010.18
2017-03-12T06:40:12.838Z,1010.21
2017-03-12T06:40:53.376Z,1010.15
2017-03-12T06:41:33.906Z,1010.19
2017-03-12T06:42:14.439Z,1010.17
2017-03-12T06:42:54.974Z,1010.18
2017-03-12T06:43:35.499Z,1010.17
2017-03-12T06:44:16.029Z,1010.19
2017-03-12T06:44:56.560Z,1010.18
2017-03-12T06:45:37.090Z,1010.19
2017-03-12T06:46:17.627Z,1010.18
2017-03-12T06:46:58.149Z,1010.24
2017-03-12T06:47:38.683Z,1010.24
2017-03-12T06:48:19.219Z,1010.23
2017-03-12T06:48:59.758Z,1010.24
2017-03-12T06:49:40.287Z,1010.24
2017-03-12T06:50:20.802Z,1010.23
2017-03-12T06:51:01.340Z,1010.28
2017-03-12T06:51:42.532Z,1010.29
2017-03-12T06:52:24.156Z,1010.26
2017-03-12T06:53:05.437Z,1010.27
2017-03-12T06:53:45.968Z,1010.29
2017-03-12T06:54:26.504Z,1010.28
2017-03-12T06:55:07.041Z,1010.26
2017-03-12T06:55:47.599Z,1010.31
2017-03-12T06:56:28.139Z,1010.29
2017-03-12T06:57:08.663Z,1010.27
2017-03-12T06:57:49.217Z,1010.27
2017-03-12T06:58:29.754Z,1010.31
2017-03-12T06:59:10.288Z,1010.31
2017-03-12T06:59:50.829Z,1010.34
2017-03-12T07:00:31.361Z,1010.33
2017-03-12T07:01:11.882Z,1010.33
2017-03-12T07:01:52.417Z,1010.35
2017-03-12T07:02:32.947Z,1010.36
2017-03-12T07:03:13.485Z,1010.31
2017-03-12T07:03:54.028Z,1010.34
2017-03-12T07:04:34.561Z,1010.33
2017-03-12T07:05:15.413Z,1010.35
2017-03-12T07:05:55.976Z,1010.42
2017-03-12T07:06:36.514Z,1010.37
2017-03-12T07:07:17.047Z,1010.33
2017-03-12T07:07:57.577Z,1010.39
2017-03-12T07:08:38.113Z,1010.43
2017-03-12T07:09:18.639Z,1010.38
2017-03-12T07:09:59.172Z,1010.39
2017-03-12T07:10:39.714Z,1010.41
2017-03-12T07:11:20.246Z,1010.46
2017-03-12T07:12:00.780Z,1010.4
2017-03-12T07:12:41.313Z,1010.36
2017-03-12T07:13:21.848Z,1010.36
2017-03-12T07:14:02.385Z,1010.38
2017-03-12T07:14:42.927Z,1010.38
2017-03-12T07:15:23.445Z,1010.38
2017-03-12T07:16:04.028Z,1010.36
2017-03-12T07:16:44.526Z,1010.35
2017-03-12T07:17:25.069Z,1010.36
2017-03-12T07:18:05.603Z,1010.34
2017-03-12T07:18:46.138Z,1010.37
2017-03-12T07:19:26.712Z,1010.38
2017-03-12T07:20:07.249Z,1010.33
2017-03-12T07:20:47.785Z,1010.39
2017-03-12T07:21:28.327Z,1010.29
2017-03-12T07:22:08.885Z,1010.34
2017-03-12T07:22:49.419Z,1010.35
2017-03-12T07:23:29.961Z,1010.32
2017-03-12T07:24:10.494Z,1010.32
2017-03-12T07:24:51.024Z,1010.37
2017-03-12T07:25:31.561Z,1010.31
2017-03-12T07:26:12.098Z,1010.33
2017-03-12T07:26:52.631Z,1010.28
2017-03-12T07:27:33.165Z,1010.29
2017-03-12T07:28:13.695Z,1010.31
2017-03-12T07:28:54.228Z,1010.35
2017-03-12T07:29:34.980Z,1010.34
2017-03-12T07:30:16.872Z,1010.3
2017-03-12T07:30:59.714Z,1010.32
2017-03-12T07:31:42.490Z,1010.29
2017-03-12T07:34:14.293Z,1010.33
2017-03-12T07:34:54.823Z,1010.31
2017-03-12T07:35:35.350Z,1010.32
2017-03-12T07:36:15.883Z,1010.29
2017-03-12T07:36:56.420Z,1010.29
2017-03-12T07:37:36.958Z,1010.28
2017-03-12T07:38:17.499Z,1010.23
2017-03-12T07:38:58.035Z,1010.3
2017-03-12T07:39:38.562Z,1010.3
2017-03-12T07:40:19.089Z,1010.26
2017-03-12T07:40:59.619Z,1010.34
2017-03-12T07:41:40.152Z,1010.32
2017-03-12T07:42:20.693Z,1010.31
2017-03-12T07:43:01.222Z,1010.32
2017-03-12T07:43:41.745Z,1010.32
2017-03-12T07:44:22.272Z,1010.37
2017-03-12T07:45:02.800Z,1010.39
2017-03-12T07:45:43.337Z,1010.36
2017-03-12T07:46:23.869Z,1010.33
2017-03-12T07:47:04.402Z,1010.3
2017-03-12T07:47:44.932Z,1010.35
2017-03-12T07:48:25.469Z,1010.32
2017-03-12T07:49:06.003Z,1010.29
2017-03-12T07:49:46.538Z,1010.35
2017-03-12T07:50:27.064Z,1010.34
2017-03-12T07:51:07.596Z,1010.31
2017-03-12T07:51:48.135Z,1010.33
2017-03-12T07:52:28.671Z,1010.3
2017-03-12T07:53:09.223Z,1010.27
2017-03-12T07:53:49.754Z,1010.28
2017-03-12T07:54:30.287Z,1010.32
2017-03-12T07:55:10.815Z,1010.3
2017-03-12T07:55:51.344Z,1010.31
2017-03-12T07:56:31.874Z,1010.3
2017-03-12T07:57:12.410Z,1010.31
2017-03-12T07:57:52.948Z,1010.34
2017-03-12T07:58:33.485Z,1010.33
2017-03-12T07:59:14.018Z,1010.3
2017-03-12T07:59:54.550Z,1010.3
2017-03-12T08:00:35.082Z,1010.33
2017-03-12T08:01:15.619Z,1010.32
2017-03-12T08:01:56.147Z,1010.3
2017-03-12T08:02:36.683Z,1010.33
2017-03-12T08:03:19.036Z,1010.31
2017-03-12T08:05:15.800Z,1010.28
2017-03-12T08:05:58.243Z,1010.29
2017-03-12T08:06:40.483Z,1010.31
2017-03-12T08:07:23.486Z,1010.31
2017-03-12T08:08:05.590Z,1010.33
2017-03-12T08:08:46.125Z,1010.32
2017-03-12T08:09:26.646Z,1010.32
2017-03-12T08:10:07.214Z,1010.28
2017-03-12T08:10:47.743Z,1010.27
2017-03-12T08:11:28.288Z,1010.27
2017-03-12T08:12:09.423Z,1010.25
2017-03-12T08:12:52.243Z,1010.28
2017-03-12T08:13:35.565Z,1010.25
2017-03-12T08:14:18.959Z,1010.25
2017-03-12T08:15:02.591Z,1010.25
2017-03-12T08:15:45.766Z,1010.26
2017-03-12T08:16:28.253Z,1010.26
2017-03-12T08:17:10.837Z,1010.22
2017-03-12T08:17:53.422Z,1010.23
2017-03-12T08:18:36.608Z,1010.24
2017-03-12T08:19:19.810Z,1010.28
2017-03-12T08:20:01.924Z,1010.21
2017-03-12T08:20:43.292Z,1010.23
2017-03-12T08:21:23.812Z,1010.24
2017-03-12T08:22:04.350Z,1010.23
2017-03-12T08:22:45.044Z,1010.2
2017-03-12T08:23:26.521Z,1010.27
2017-03-12T08:24:07.185Z,1010.21
2017-03-12T08:24:47.726Z,1010.2
2017-03-12T08:25:28.259Z,1010.22
2017-03-12T08:26:08.821Z,1010.22
2017-03-12T08:26:49.362Z,1010.21
2017-03-12T08:27:29.888Z,1010.23
2017-03-12T08:28:10.434Z,1010.2
2017-03-12T08:28:50.983Z,1010.23
2017-03-12T08:29:31.517Z,1010.24
2017-03-12T08:30:12.057Z,1010.25
2017-03-12T08:30:52.591Z,1010.3
2017-03-12T08:31:33.138Z,1010.19
2017-03-12T08:32:13.688Z,1010.22
2017-03-12T08:32:54.214Z,1010.13
2017-03-12T08:33:34.742Z,1010.14
2017-03-12T08:34:15.277Z,1010.12
2017-03-12T08:34:55.813Z,1010.16
2017-03-12T08:35:36.334Z,1010.12
2017-03-12T08:36:16.871Z,1010.12
2017-03-12T08:36:57.404Z,1010.12
2017-03-12T08:37:37.941Z,1010.11
2017-03-12T08:38:18.462Z,1010.11
2017-03-12T08:38:58.999Z,1010.13
2017-03-12T08:39:39.523Z,1010.09
2017-03-12T08:40:20.061Z,1010.09
2017-03-12T08:41:00.595Z,1010.09
2017-03-12T08:41:41.134Z,1010.09
2017-03-12T08:42:21.668Z,1010.09
2017-03-12T08:43:02.222Z,1010.11
2017-03-12T08:43:42.756Z,1010.09
2017-03-12T08:44:23.292Z,1010.08
2017-03-12T08:45:03.821Z,1010.03
2017-03-12T08:45:44.346Z,1010.04
2017-03-12T08:46:24.892Z,1010.03
2017-03-12T08:47:05.432Z,1010.03
2017-03-12T08:47:45.982Z,1010.04
2017-03-12T08:48:26.512Z,1010.03